LFMLLFMC

Guest
Details From LFML - Marseille Provence
To LFMC - Le Cannet
Flight Number -
Tags generated
Created
Modified
Stats Distance 51 nm / 95 km
Max Altitude 2,500 ft / 762 m
Waypoints 3
Social Downloads 2
Likes 0
Share VATSIM

Download

Looking for another format? Having issues loading an existing format? Contact us
Advertisement - Login to hide

Notes

Basic altitude profile: - Ascent Rate: 700ft/min - Ascent Speed: 80kts - Cruise Altitude: 2500ft - Cruise Speed: 100kts - Descent Rate: 1000ft/min - Descent Speed: 60kts

Route

LFML TRETS LFMC

ID Type Via Altitude Latitude Longitude Leg Dist Tot Dist Heading (true) Name
O LFML APT - 0 ft / 0 m 43.43589˚ 5.21328˚ - 0 nm - Marseille Provence
TRETS FIX - 2,500 ft / 762 m 43.41306˚ 5.73083˚ 22 nm 22 nm 93° / 94° -
O LFMC APT - 0 ft / 0 m 43.38443˚ 6.38537˚ 28 nm 51 nm 93° / 94° Le Cannet

Altitude Profile

Advertisement - Login to hide

LFML

Details ICAO LFML (MRS)
Name Marseille Provence
Region France
Timezone Europe/Paris (UTC+1.0)
Stats Elevation 74 ft / 23 m (AMSL)
Location 43.435892° 5.213282°
Runways 2
Magnetic Variation 1.553° E

METAR

LFML 180130Z AUTO 32014KT CAVOK 05/M02 Q1027 NOSIG

Decode

TAF

TAF AMD LFML 172200Z 1722/1903 33017KT CAVOK BECMG 1808/1810 VRB03KT SCT016 BKN045 PROB40 TEMPO 1810/1815 -RA BECMG 1815/1817 34015KT SCT020 TEMPO 1819/1903 36005KT CAVOK TX07/1814Z TN02/1800Z

Decode

Departure Runways

ID Width Length Bearing (true) Bearing (mag) Surface Threshold Offset Overrun Length
13L 148 ft / 45 m 11,478 ft / 3,499 m 133.99° 132.44° Asphalt 1,115 ft / 340 m 0 ft / 0 m
13R 148 ft / 45 m 7,981 ft / 2,433 m 134.90° 133.35° Asphalt 0 ft / 0 m 0 ft / 0 m
31L 148 ft / 45 m 7,981 ft / 2,433 m 314.91° 313.36° Asphalt 344 ft / 105 m 0 ft / 0 m
31R 148 ft / 45 m 11,478 ft / 3,499 m 314.01° 312.46° Asphalt 2,165 ft / 660 m 0 ft / 0 m

LFMC

Details ICAO LFMC
Name Le Cannet
Region France
Timezone Europe/Paris (UTC+1.0)
Stats Elevation 264 ft / 80 m (AMSL)
Location 43.384430° 6.385368°
Runways 2
Magnetic Variation 1.827° E

METAR

LFMC 180130Z AUTO 25003KT 9999 ////// 02/M05 Q1025

Decode

TAF

Not found

Destination Runways

ID Width Length Bearing (true) Bearing (mag) Surface Threshold Offset Overrun Length
09 98 ft / 30 m 2,619 ft / 798 m 88.40° 86.57° Asphalt 0 ft / 0 m 0 ft / 0 m
13 98 ft / 30 m 4,789 ft / 1,460 m 130.24° 128.41° Asphalt 984 ft / 300 m 0 ft / 0 m
27 98 ft / 30 m 2,619 ft / 798 m 268.41° 266.58° Asphalt 0 ft / 0 m 0 ft / 0 m
31 98 ft / 30 m 4,789 ft / 1,460 m 310.25° 308.42° Asphalt 312 ft / 95 m 0 ft / 0 m

Approach Navaids

Runway Type Ident Frequency Range Bearing (true) Bearing (mag) Slope Elevation
09 Localiser LC 109.30 MHz 18 nm / 33 km 87.22° 85.39° - 259 ft / 79 m (AMSL)
09 Glidescope LC 109.30 MHz 10 nm / 19 km 88.40° 86.58° 4.00° 1,060 ft / 323 m (AMSL)
09 DME LC 109.30 MHz 18 nm / 33 km - - - 1,060 ft / 323 m (AMSL)

Popular Alternatives